Time;durP1;ratioP1;P1;durP2;ratioP2;P2;SDS_P1;SDS_P2;PMS_P1;PMS_P2;Temp;Humidity;BMP_temperature;BMP_pressure;BME280_temperature;BME280_humidity;BME280_pressure;Samples;Min_cycle;Max_cycle;Signal;HPM_P1;HPM_P2
2023/05/26 00:00:09;;;;;;;22.30;6.30;;;15.20;96.70;;;;;;4989669;28;20872;-33
2023/05/26 00:02:36;;;;;;;27.10;7.32;;;15.30;96.70;;;;;;5001727;28;20284;-33
2023/05/26 00:05:05;;;;;;;20.65;5.75;;;15.20;96.90;;;;;;4986244;28;20680;-33
2023/05/26 00:07:33;;;;;;;24.80;6.57;;;15.20;96.70;;;;;;4992240;28;20253;-33
2023/05/26 00:10:00;;;;;;;20.67;6.53;;;15.20;96.80;;;;;;4997729;28;20601;-33
2023/05/26 00:12:30;;;;;;;19.13;5.90;;;15.20;96.70;;;;;;4986754;28;20317;-33
2023/05/26 00:14:57;;;;;;;17.80;5.35;;;15.20;96.70;;;;;;4985206;28;20260;-33
2023/05/26 00:17:27;;;;;;;19.30;5.93;;;15.20;96.70;;;;;;5003195;28;20209;-33
2023/05/26 00:19:59;;;;;;;22.58;6.13;;;15.20;96.60;;;;;;4997458;28;20558;-33
2023/05/26 00:22:32;;;;;;;18.70;6.00;;;15.20;96.70;;;;;;4996520;28;20218;-33
2023/05/26 00:25:03;;;;;;;19.70;5.85;;;15.10;96.70;;;;;;5000407;28;20214;-33
2023/05/26 00:27:33;;;;;;;18.95;6.07;;;15.00;96.70;;;;;;4986135;28;20602;-33
2023/05/26 00:30:05;;;;;;;16.63;5.75;;;15.10;96.60;;;;;;4991232;28;20218;-33
2023/05/26 00:32:35;;;;;;;22.40;5.80;;;15.00;96.60;;;;;;4986449;28;20724;-33
2023/05/26 00:35:02;;;;;;;21.20;6.05;;;15.00;96.60;;;;;;4985142;28;20972;-33
2023/05/26 00:37:34;;;;;;;18.00;5.40;;;15.00;96.70;;;;;;4987072;28;20529;-33
2023/05/26 00:40:06;;;;;;;21.63;6.38;;;14.90;96.60;;;;;;4987525;28;20207;-33
2023/05/26 00:42:33;;;;;;;17.50;5.53;;;14.90;96.60;;;;;;4987495;28;20579;-33
2023/05/26 00:45:00;;;;;;;19.35;5.95;;;14.90;96.70;;;;;;4985394;28;20680;-33
2023/05/26 00:47:27;;;;;;;17.02;5.40;;;14.90;96.70;;;;;;4986484;28;20714;-33
2023/05/26 00:50:02;;;;;;;20.70;6.40;;;14.80;96.70;;;;;;4992891;28;20242;-33
2023/05/26 00:52:30;;;;;;;19.27;5.90;;;14.80;96.70;;;;;;4997733;28;20429;-33
2023/05/26 00:55:00;;;;;;;19.92;5.28;;;14.80;96.60;;;;;;4993422;28;20297;-33
2023/05/26 00:57:29;;;;;;;20.30;5.72;;;14.80;96.80;;;;;;4988372;28;20231;-33
2023/05/26 00:59:57;;;;;;;19.13;5.78;;;14.70;96.70;;;;;;4992473;28;20202;-33
2023/05/26 01:02:27;;;;;;;16.08;6.07;;;14.70;96.60;;;;;;4998444;28;20210;-33
2023/05/26 01:04:54;;;;;;;21.20;6.23;;;14.70;96.60;;;;;;4992704;28;20223;-34
2023/05/26 01:07:22;;;;;;;23.13;6.75;;;14.70;96.70;;;;;;4996932;28;20668;-33
2023/05/26 01:09:50;;;;;;;17.88;5.75;;;14.60;96.80;;;;;;4996948;28;20296;-33
2023/05/26 01:12:33;;;;;;;20.52;6.45;;;14.60;96.80;;;;;;4998128;28;20206;-33
2023/05/26 01:15:04;;;;;;;18.15;5.85;;;14.60;96.80;;;;;;5002305;28;20798;-33
2023/05/26 01:17:52;;;;;;;16.90;5.32;;;14.50;96.70;;;;;;4999830;28;20213;-33
2023/05/26 01:20:48;;;;;;;15.07;5.47;;;14.50;96.60;;;;;;4991166;28;20208;-33
2023/05/26 01:23:22;;;;;;;18.23;5.40;;;14.50;96.70;;;;;;5005181;28;20324;-33
2023/05/26 01:26:08;;;;;;;17.65;5.95;;;14.40;96.70;;;;;;5000681;28;20205;-33
2023/05/26 01:28:41;;;;;;;19.23;5.75;;;14.40;96.70;;;;;;4999705;28;20209;-33
2023/05/26 01:31:12;;;;;;;19.42;5.45;;;14.30;96.90;;;;;;4989923;28;20218;-33
2023/05/26 01:33:41;;;;;;;19.35;5.90;;;14.30;96.80;;;;;;4985994;28;20226;-33
2023/05/26 01:36:13;;;;;;;25.75;6.28;;;14.20;97.00;;;;;;5003055;28;20688;-33
2023/05/26 01:38:41;;;;;;;21.20;6.50;;;14.20;97.00;;;;;;4999156;28;20240;-33
2023/05/26 01:41:28;;;;;;;20.50;5.93;;;14.10;96.90;;;;;;4989888;28;20283;-33
2023/05/26 01:44:01;;;;;;;18.93;5.83;;;14.10;96.80;;;;;;4983808;28;20308;-33
2023/05/26 01:46:52;;;;;;;22.52;6.57;;;14.00;96.70;;;;;;4999688;28;20267;-33
2023/05/26 01:49:28;;;;;;;20.00;5.72;;;14.00;97.10;;;;;;4968692;28;20280;-34
2023/05/26 01:51:59;;;;;;;22.48;6.55;;;14.00;96.90;;;;;;4985660;28;20568;-33
2023/05/26 01:54:35;;;;;;;22.17;5.78;;;14.00;96.80;;;;;;5003453;28;20206;-33
2023/05/26 01:57:07;;;;;;;18.92;6.07;;;13.90;96.80;;;;;;4988547;28;20241;-33
2023/05/26 01:59:37;;;;;;;21.00;5.30;;;13.90;96.80;;;;;;4985404;28;20273;-34
2023/05/26 02:02:04;;;;;;;17.38;5.13;;;13.90;96.70;;;;;;4988331;28;20201;-33
2023/05/26 02:04:32;;;;;;;17.85;5.15;;;13.90;96.70;;;;;;4999399;28;20301;-33
2023/05/26 02:07:02;;;;;;;19.08;5.45;;;13.90;96.60;;;;;;4968244;28;20635;-33
2023/05/26 02:09:36;;;;;;;17.47;5.10;;;13.80;97.20;;;;;;4992265;28;20701;-33
2023/05/26 02:12:06;;;;;;;20.03;5.33;;;13.80;96.90;;;;;;4984213;28;20230;-33
2023/05/26 02:14:35;;;;;;;17.53;5.00;;;13.70;96.80;;;;;;4984995;28;20252;-33
2023/05/26 02:17:03;;;;;;;18.90;4.80;;;13.70;96.80;;;;;;4998572;28;20622;-33
2023/05/26 02:19:34;;;;;;;18.73;5.38;;;13.70;96.60;;;;;;4988195;28;20208;-33
2023/05/26 02:22:01;;;;;;;17.63;5.22;;;13.70;96.70;;;;;;4983940;28;20214;-33
2023/05/26 02:24:28;;;;;;;19.55;5.22;;;13.70;97.00;;;;;;4984157;28;20225;-33
2023/05/26 02:26:56;;;;;;;19.45;5.55;;;13.70;96.80;;;;;;4982985;28;20213;-33
2023/05/26 02:29:26;;;;;;;21.30;5.90;;;13.70;96.90;;;;;;4964851;28;20213;-33
2023/05/26 02:31:55;;;;;;;16.05;5.60;;;13.60;97.00;;;;;;4997064;28;20206;-33
2023/05/26 02:34:25;;;;;;;18.43;5.10;;;13.60;96.90;;;;;;5002563;28;20830;-33
2023/05/26 02:36:55;;;;;;;18.27;4.95;;;13.60;96.90;;;;;;5000991;28;20719;-33
2023/05/26 02:39:23;;;;;;;23.55;5.90;;;13.50;96.70;;;;;;5004010;28;20216;-33
2023/05/26 02:41:53;;;;;;;17.45;5.32;;;13.50;96.90;;;;;;4964890;28;20751;-33
2023/05/26 02:44:22;;;;;;;21.13;6.10;;;13.50;97.10;;;;;;4982707;28;20330;-33
2023/05/26 02:46:50;;;;;;;18.37;5.37;;;13.40;97.00;;;;;;4982649;28;20590;-33
2023/05/26 02:49:33;;;;;;;22.60;5.90;;;13.40;97.10;;;;;;4984908;28;20202;-33
2023/05/26 02:52:07;;;;;;;17.40;5.20;;;13.40;97.00;;;;;;4991090;28;20208;-33
2023/05/26 02:54:35;;;;;;;19.27;5.17;;;13.30;97.00;;;;;;4998314;28;20221;-33
2023/05/26 02:57:05;;;;;;;16.13;4.90;;;13.30;97.00;;;;;;4986299;28;20261;-33
2023/05/26 02:59:35;;;;;;;18.35;5.53;;;13.30;96.80;;;;;;4985961;28;20626;-33
2023/05/26 03:02:04;;;;;;;19.25;5.45;;;13.30;96.70;;;;;;4981757;28;20597;-33
2023/05/26 03:04:32;;;;;;;19.57;5.67;;;13.20;96.90;;;;;;4984453;28;20652;-33
2023/05/26 03:07:01;;;;;;;17.27;5.15;;;13.20;96.80;;;;;;4982698;28;20302;-33
2023/05/26 03:09:31;;;;;;;17.23;5.10;;;13.20;96.80;;;;;;4999637;28;20657;-33
2023/05/26 03:12:00;;;;;;;18.13;5.40;;;13.20;96.90;;;;;;4975120;28;20241;-33
2023/05/26 03:14:30;;;;;;;20.17;5.07;;;13.20;96.80;;;;;;4995510;28;20236;-33
2023/05/26 03:17:00;;;;;;;17.30;4.90;;;13.20;97.10;;;;;;5003912;28;20643;-33
2023/05/26 03:19:30;;;;;;;18.10;5.03;;;13.10;97.10;;;;;;4989020;28;20213;-33
2023/05/26 03:21:59;;;;;;;20.88;5.57;;;13.10;96.90;;;;;;4988918;28;20214;-33
2023/05/26 03:24:48;;;;;;;21.43;5.27;;;13.10;97.00;;;;;;5005308;28;20874;-33
2023/05/26 03:27:17;;;;;;;22.23;5.47;;;13.00;97.10;;;;;;5002519;28;20712;-33
2023/05/26 03:29:46;;;;;;;19.50;4.80;;;13.00;97.30;;;;;;4987558;28;20217;-33
2023/05/26 03:32:14;;;;;;;19.63;5.17;;;12.90;97.00;;;;;;5003098;28;20281;-33
2023/05/26 03:34:44;;;;;;;18.43;4.60;;;12.90;97.00;;;;;;4997971;28;20216;-33
2023/05/26 03:37:11;;;;;;;21.17;5.73;;;12.90;96.90;;;;;;4996391;28;20229;-33
2023/05/26 03:39:39;;;;;;;19.50;5.30;;;12.90;96.90;;;;;;4990608;28;20237;-33
2023/05/26 03:42:08;;;;;;;23.97;5.87;;;12.90;97.10;;;;;;4991438;28;20592;-34
2023/05/26 03:44:36;;;;;;;20.57;4.93;;;12.80;97.20;;;;;;4996846;28;20201;-33
2023/05/26 03:47:03;;;;;;;22.20;4.80;;;12.80;97.00;;;;;;4985934;28;20639;-33
2023/05/26 03:49:30;;;;;;;17.77;5.27;;;12.80;97.00;;;;;;4959713;28;20226;-33
2023/05/26 03:52:01;;;;;;;21.10;5.73;;;12.80;96.90;;;;;;4987554;28;20297;-33
2023/05/26 03:54:30;;;;;;;23.13;5.30;;;12.80;97.10;;;;;;4993204;28;20229;-33
2023/05/26 03:56:57;;;;;;;19.23;4.90;;;12.80;96.90;;;;;;4997317;28;20241;-33
2023/05/26 03:59:29;;;;;;;19.33;5.07;;;12.80;96.90;;;;;;4988182;28;20541;-33
2023/05/26 04:01:59;;;;;;;21.33;5.00;;;12.80;97.00;;;;;;4989383;28;20206;-33
2023/05/26 04:04:29;;;;;;;17.13;5.20;;;12.80;97.00;;;;;;4989020;28;20218;-33
2023/05/26 04:06:56;;;;;;;20.67;5.63;;;12.80;97.20;;;;;;5002980;28;20245;-33
2023/05/26 04:09:26;;;;;;;20.67;5.53;;;12.80;97.00;;;;;;5009578;28;20239;-33
2023/05/26 04:11:53;;;;;;;19.23;5.50;;;12.80;97.00;;;;;;5003356;28;20225;-33
2023/05/26 04:14:23;;;;;;;16.87;5.30;;;12.80;97.10;;;;;;4996226;28;20224;-33
2023/05/26 04:16:51;;;;;;;19.20;4.80;;;12.80;97.20;;;;;;5007048;28;20221;-33
2023/05/26 04:19:18;;;;;;;24.90;5.70;;;12.80;97.20;;;;;;5005455;28;20209;-33
2023/05/26 04:21:45;;;;;;;23.80;6.00;;;12.80;97.10;;;;;;5006085;28;20263;-33
2023/05/26 04:24:17;;;;;;;16.90;5.33;;;12.80;97.80;;;;;;4995429;28;20209;-34
2023/05/26 04:26:44;;;;;;;19.17;4.77;;;12.70;97.50;;;;;;4998670;28;20739;-33
2023/05/26 04:29:12;;;;;;;20.17;6.07;;;12.70;97.30;;;;;;4987636;28;20604;-33
2023/05/26 04:31:42;;;;;;;22.00;5.53;;;12.70;97.50;;;;;;5005414;28;20209;-33
2023/05/26 04:34:12;;;;;;;17.03;5.20;;;12.70;97.90;;;;;;5000581;28;20243;-33
2023/05/26 04:36:39;;;;;;;19.30;5.17;;;12.70;97.60;;;;;;4998116;28;20241;-33
2023/05/26 04:39:07;;;;;;;20.37;5.20;;;12.70;97.40;;;;;;4998902;28;20220;-33
2023/05/26 04:41:34;;;;;;;17.77;5.57;;;12.70;97.50;;;;;;4995473;28;20244;-33
2023/05/26 04:44:06;;;;;;;19.47;5.23;;;12.70;97.80;;;;;;4991787;28;20209;-33
2023/05/26 04:46:45;;;;;;;22.03;5.30;;;12.60;97.70;;;;;;4987809;28;20224;-33
2023/05/26 04:49:22;;;;;;;25.30;6.10;;;12.60;97.80;;;;;;5005832;28;20271;-33
2023/05/26 04:51:54;;;;;;;21.33;5.47;;;12.60;98.30;;;;;;5001246;28;20632;-33
2023/05/26 04:54:26;;;;;;;23.53;6.40;;;12.60;97.60;;;;;;4984521;28;20214;-33
2023/05/26 04:56:53;;;;;;;21.57;5.50;;;12.60;98.00;;;;;;4988570;28;20277;-33
2023/05/26 04:59:23;;;;;;;24.00;5.37;;;12.60;98.00;;;;;;4988493;28;20207;-33
2023/05/26 05:01:51;;;;;;;21.80;5.67;;;12.60;98.10;;;;;;4991570;28;20269;-33
2023/05/26 05:04:20;;;;;;;19.90;5.43;;;12.50;98.70;;;;;;4992788;28;20603;-33
2023/05/26 05:06:47;;;;;;;22.33;5.50;;;12.40;98.50;;;;;;4989893;28;20202;-33
2023/05/26 05:09:15;;;;;;;26.87;5.67;;;12.50;98.20;;;;;;4989810;28;20258;-34
2023/05/26 05:11:44;;;;;;;21.23;5.20;;;12.40;98.70;;;;;;4988551;28;21091;-33
2023/05/26 05:14:16;;;;;;;24.23;5.50;;;12.40;98.70;;;;;;4990267;28;20218;-36
2023/05/26 05:16:54;;;;;;;19.63;6.40;;;12.40;98.50;;;;;;4986863;28;20222;-33
2023/05/26 05:19:26;;;;;;;25.37;5.90;;;12.50;98.40;;;;;;4996165;28;20259;-33
2023/05/26 05:21:56;;;;;;;23.60;6.13;;;12.50;98.50;;;;;;4991574;28;20221;-33
2023/05/26 05:24:27;;;;;;;32.57;6.93;;;12.50;99.00;;;;;;4993590;28;20202;-33
2023/05/26 05:26:58;;;;;;;26.13;5.97;;;12.50;99.40;;;;;;4987492;28;20637;-33
2023/05/26 05:29:25;;;;;;;26.67;6.03;;;12.40;98.90;;;;;;4999107;28;20224;-33
2023/05/26 05:31:53;;;;;;;23.50;5.90;;;12.50;98.80;;;;;;4985502;28;20221;-33
2023/05/26 05:34:20;;;;;;;26.60;6.40;;;12.50;98.60;;;;;;4992479;28;20205;-33
2023/05/26 05:36:47;;;;;;;23.13;4.80;;;12.60;98.60;;;;;;4979028;28;20731;-33
2023/05/26 05:39:14;;;;;;;41.17;7.30;;;12.60;98.50;;;;;;4993696;28;20222;-33
2023/05/26 05:41:46;;;;;;;24.87;5.73;;;12.70;98.70;;;;;;4999080;28;20412;-35
2023/05/26 05:44:13;;;;;;;25.10;5.73;;;12.70;98.80;;;;;;4990775;28;20216;-33
2023/05/26 05:46:45;;;;;;;22.90;5.73;;;12.70;98.70;;;;;;4985122;28;20214;-33
2023/05/26 05:49:17;;;;;;;24.77;5.20;;;12.70;98.60;;;;;;4980689;28;20206;-33
2023/05/26 05:51:47;;;;;;;24.00;6.20;;;12.80;98.50;;;;;;4988835;28;20218;-33
2023/05/26 05:54:14;;;;;;;18.43;5.90;;;12.80;98.80;;;;;;5002429;28;20206;-33
2023/05/26 05:56:44;;;;;;;19.93;5.00;;;12.90;98.40;;;;;;4977465;28;20244;-33
2023/05/26 05:59:13;;;;;;;18.20;5.03;;;12.90;98.60;;;;;;4997483;28;20230;-34
2023/05/26 06:01:45;;;;;;;26.03;6.03;;;12.90;98.70;;;;;;4983216;28;20202;-33
2023/05/26 06:04:12;;;;;;;30.50;6.27;;;12.90;98.60;;;;;;4989668;28;20206;-33
2023/05/26 06:06:42;;;;;;;28.33;6.70;;;13.00;98.60;;;;;;4964691;28;20737;-33
2023/05/26 06:09:12;;;;;;;30.63;6.90;;;13.00;98.30;;;;;;4989650;28;20221;-33
2023/05/26 06:11:39;;;;;;;28.40;6.00;;;13.10;98.40;;;;;;4983995;28;20213;-33
2023/05/26 06:14:11;;;;;;;48.13;8.40;;;13.10;98.60;;;;;;4989778;28;20213;-33
2023/05/26 06:16:41;;;;;;;29.80;7.00;;;13.10;98.80;;;;;;4983762;28;20229;-33
2023/05/26 06:19:08;;;;;;;33.00;7.30;;;13.10;98.80;;;;;;4988790;28;20206;-33
2023/05/26 06:21:38;;;;;;;57.50;10.47;;;13.10;98.80;;;;;;4990475;28;20665;-33
2023/05/26 06:24:07;;;;;;;38.83;7.17;;;13.20;98.90;;;;;;4990600;28;20293;-33
2023/05/26 06:26:37;;;;;;;28.00;6.23;;;13.20;98.80;;;;;;4985377;28;20636;-34
2023/05/26 06:29:04;;;;;;;24.83;6.10;;;13.10;99.10;;;;;;5003984;28;20595;-33
2023/05/26 06:31:34;;;;;;;22.57;6.03;;;13.00;99.30;;;;;;4980171;28;20219;-33
2023/05/26 06:34:04;;;;;;;27.23;7.10;;;13.10;99.10;;;;;;4996359;28;20204;-33
2023/05/26 06:36:35;;;;;;;27.87;6.97;;;13.10;99.10;;;;;;4989960;28;20723;-33
2023/05/26 06:39:02;;;;;;;29.70;7.67;;;13.20;98.90;;;;;;4990413;28;20218;-34
2023/05/26 06:41:34;;;;;;;24.73;6.83;;;13.30;98.70;;;;;;4989873;28;20210;-33
2023/05/26 06:44:03;;;;;;;27.87;6.73;;;13.30;98.90;;;;;;4993292;28;20217;-33
2023/05/26 06:46:34;;;;;;;27.97;7.60;;;13.40;99.10;;;;;;4999205;28;20611;-33
2023/05/26 06:49:06;;;;;;;23.50;6.47;;;13.40;98.80;;;;;;5002069;28;20213;-33
2023/05/26 06:51:40;;;;;;;23.37;6.93;;;13.40;98.90;;;;;;4994512;28;20209;-33
2023/05/26 06:54:10;;;;;;;26.23;6.73;;;13.50;98.70;;;;;;4997732;28;20580;-33
2023/05/26 06:56:38;;;;;;;23.43;6.63;;;13.50;98.90;;;;;;4990122;28;20555;-34
2023/05/26 06:59:07;;;;;;;25.87;7.00;;;13.50;98.90;;;;;;4983773;28;20218;-33
2023/05/26 07:01:39;;;;;;;28.43;7.30;;;13.60;98.80;;;;;;5000912;28;20645;-33
2023/05/26 07:04:07;;;;;;;21.17;6.60;;;13.60;99.00;;;;;;5002162;28;20201;-33
2023/05/26 07:06:36;;;;;;;24.23;6.33;;;13.80;98.90;;;;;;5001291;28;20197;-33
2023/05/26 07:09:16;;;;;;;29.17;6.30;;;13.90;99.10;;;;;;4995896;28;20312;-33
2023/05/26 07:11:43;;;;;;;27.48;6.63;;;14.00;99.20;;;;;;4984742;28;20226;-33
2023/05/26 07:14:13;;;;;;;24.50;5.93;;;14.00;99.20;;;;;;4990541;28;20218;-33
2023/05/26 07:16:40;;;;;;;21.92;6.45;;;14.10;99.20;;;;;;4999381;28;20209;-33
2023/05/26 07:19:08;;;;;;;20.07;5.97;;;14.10;99.10;;;;;;4994774;28;20461;-34
2023/05/26 07:21:35;;;;;;;25.73;7.07;;;14.20;99.00;;;;;;4998458;28;20232;-34
2023/05/26 07:24:03;;;;;;;19.60;5.97;;;14.20;98.90;;;;;;4994851;28;20212;-34
2023/05/26 07:26:34;;;;;;;43.87;8.17;;;14.20;98.90;;;;;;4985279;28;20219;-34
2023/05/26 07:29:07;;;;;;;31.20;8.02;;;14.20;99.00;;;;;;4989151;28;20660;-34
2023/05/26 07:31:34;;;;;;;26.27;6.60;;;14.20;99.00;;;;;;4990952;28;20730;-34
2023/05/26 07:34:03;;;;;;;22.08;7.07;;;14.20;98.90;;;;;;4996770;28;20327;-34
2023/05/26 07:36:32;;;;;;;25.30;7.77;;;14.30;98.90;;;;;;4987245;28;20247;-34
2023/05/26 07:38:59;;;;;;;27.30;6.37;;;14.30;98.90;;;;;;5000796;28;20247;-34
2023/05/26 07:41:26;;;;;;;23.73;5.97;;;14.30;99.00;;;;;;4986801;28;20213;-34
2023/05/26 07:43:56;;;;;;;19.03;5.97;;;14.30;98.90;;;;;;4980897;28;20584;-34
2023/05/26 07:46:25;;;;;;;20.75;5.40;;;14.30;98.90;;;;;;4986762;28;20450;-34
2023/05/26 07:48:55;;;;;;;26.40;6.65;;;14.30;98.90;;;;;;4993059;28;20205;-34
2023/05/26 07:51:25;;;;;;;26.35;6.35;;;14.40;98.90;;;;;;4989104;28;20556;-34
2023/05/26 07:53:52;;;;;;;22.47;5.90;;;14.40;98.90;;;;;;4976150;28;20202;-34
2023/05/26 07:56:19;;;;;;;21.07;5.53;;;14.40;98.90;;;;;;4998016;28;20197;-34
2023/05/26 07:58:49;;;;;;;17.50;5.63;;;14.50;98.90;;;;;;4999977;28;20676;-33
2023/05/26 08:01:16;;;;;;;25.50;6.18;;;14.60;99.00;;;;;;5001082;28;20217;-34
2023/05/26 08:03:43;;;;;;;19.05;5.75;;;14.60;99.00;;;;;;4990366;28;20205;-34
2023/05/26 08:06:13;;;;;;;29.33;6.73;;;14.70;99.00;;;;;;4996075;28;20201;-34
2023/05/26 08:08:52;;;;;;;24.50;6.33;;;14.80;99.00;;;;;;4986372;28;20227;-34
2023/05/26 08:11:22;;;;;;;25.90;6.28;;;14.80;99.00;;;;;;4991048;28;20315;-34
2023/05/26 08:13:55;;;;;;;34.07;8.17;;;14.80;99.00;;;;;;4994977;28;20217;-34
2023/05/26 08:16:25;;;;;;;25.33;6.30;;;14.90;99.00;;;;;;5002012;28;20206;-34
2023/05/26 08:18:53;;;;;;;26.17;6.97;;;14.90;99.00;;;;;;4987328;28;20241;-34
2023/05/26 08:21:20;;;;;;;21.45;5.68;;;14.90;99.00;;;;;;4996261;28;20205;-34
2023/05/26 08:23:47;;;;;;;28.10;6.37;;;15.00;99.00;;;;;;4997255;28;20242;-33
2023/05/26 08:26:19;;;;;;;23.47;5.37;;;15.00;99.00;;;;;;5004609;28;20224;-33
2023/05/26 08:28:46;;;;;;;27.53;5.67;;;15.00;99.00;;;;;;4995186;28;20210;-33
2023/05/26 08:31:19;;;;;;;21.90;5.70;;;15.10;99.00;;;;;;4992616;28;20331;-33
2023/05/26 08:33:54;;;;;;;24.37;6.43;;;15.00;99.00;;;;;;4992785;28;20502;-33
2023/05/26 08:36:21;;;;;;;22.57;5.70;;;15.00;99.00;;;;;;4985966;28;20624;-33
2023/05/26 08:38:51;;;;;;;22.50;5.63;;;15.00;98.90;;;;;;4986180;28;20234;-33
2023/05/26 08:41:21;;;;;;;20.20;5.70;;;15.00;98.90;;;;;;4990766;28;20858;-33
2023/05/26 08:43:55;;;;;;;18.33;5.83;;;15.00;98.90;;;;;;4987384;28;20648;-33
2023/05/26 08:46:37;;;;;;;27.90;5.87;;;15.00;98.90;;;;;;4982287;28;20719;-33
2023/05/26 08:49:14;;;;;;;24.00;5.50;;;15.10;98.90;;;;;;4992159;28;20259;-33
2023/05/26 08:51:51;;;;;;;25.65;6.20;;;15.10;98.90;;;;;;4988856;28;20210;-33
2023/05/26 08:54:24;;;;;;;54.70;10.38;;;15.20;98.90;;;;;;4989363;28;20240;-33
2023/05/26 08:56:58;;;;;;;26.70;6.85;;;15.20;98.90;;;;;;4974198;28;20985;-33
2023/05/26 08:59:28;;;;;;;22.70;6.10;;;15.20;98.80;;;;;;4990668;28;20250;-33
2023/05/26 09:02:00;;;;;;;22.63;5.47;;;15.30;98.60;;;;;;4995780;28;20285;-33
2023/05/26 09:04:29;;;;;;;41.63;8.65;;;15.20;98.50;;;;;;4993639;28;20313;-33
2023/05/26 09:06:58;;;;;;;27.38;6.45;;;15.20;98.40;;;;;;4998625;28;20195;-33
2023/05/26 09:09:48;;;;;;;24.17;6.33;;;15.30;98.60;;;;;;4999138;28;20198;-33
2023/05/26 09:12:17;;;;;;;25.45;6.72;;;15.30;98.40;;;;;;4985124;28;20320;-33
2023/05/26 09:14:45;;;;;;;29.35;6.15;;;15.40;98.50;;;;;;5003830;28;20675;-33
2023/05/26 09:17:15;;;;;;;19.55;5.68;;;15.30;98.40;;;;;;4996474;28;20307;-33
2023/05/26 09:19:45;;;;;;;21.50;5.70;;;15.40;98.50;;;;;;4993093;28;20316;-33
2023/05/26 09:22:13;;;;;;;20.05;5.20;;;15.40;98.20;;;;;;4998076;28;20298;-33
2023/05/26 09:24:48;;;;;;;19.63;5.65;;;15.40;98.40;;;;;;4999215;28;20618;-33
2023/05/26 09:27:23;;;;;;;32.40;8.40;;;15.60;98.60;;;;;;4980352;28;20753;-33
2023/05/26 09:30:00;;;;;;;40.40;8.23;;;15.60;98.50;;;;;;5001951;28;20567;-33
2023/05/26 09:32:32;;;;;;;29.73;7.23;;;15.60;98.30;;;;;;4979695;28;20263;-33
2023/05/26 09:35:05;;;;;;;21.00;5.80;;;15.70;98.50;;;;;;4984483;28;20220;-33
2023/05/26 09:37:33;;;;;;;19.57;5.83;;;15.80;98.50;;;;;;4984870;28;20655;-33
2023/05/26 09:40:20;;;;;;;26.45;7.63;;;15.90;98.50;;;;;;4993076;28;20208;-33
2023/05/26 09:43:00;;;;;;;22.05;5.75;;;15.90;98.40;;;;;;4984602;28;20200;-33
2023/05/26 09:45:37;;;;;;;24.02;5.95;;;15.90;98.20;;;;;;4993276;28;20220;-33
2023/05/26 09:48:09;;;;;;;27.20;6.40;;;15.90;98.20;;;;;;4988618;28;20304;-34
2023/05/26 09:50:40;;;;;;;18.45;5.32;;;15.90;98.20;;;;;;4991194;28;20210;-33
2023/05/26 09:53:09;;;;;;;22.38;5.22;;;15.90;98.30;;;;;;4989922;28;20210;-33
2023/05/26 09:55:42;;;;;;;17.85;5.85;;;16.00;98.30;;;;;;4987625;28;20602;-33
2023/05/26 09:58:11;;;;;;;19.00;5.20;;;16.00;98.10;;;;;;4984481;28;20242;-33
2023/05/26 10:00:43;;;;;;;22.02;5.63;;;16.10;98.20;;;;;;4990981;28;20205;-33
2023/05/26 10:03:11;;;;;;;21.55;5.25;;;16.10;98.40;;;;;;4998792;28;20571;-33
2023/05/26 10:05:45;;;;;;;18.52;5.55;;;16.20;98.20;;;;;;4992465;28;20201;-33
2023/05/26 10:08:18;;;;;;;17.58;5.22;;;16.30;98.40;;;;;;4994590;28;20206;-33
2023/05/26 10:10:49;;;;;;;19.55;5.47;;;16.40;98.30;;;;;;5001627;28;20220;-33
2023/05/26 10:13:21;;;;;;;18.42;5.40;;;16.40;98.00;;;;;;4993331;28;20263;-33
2023/05/26 10:15:48;;;;;;;19.88;5.50;;;16.40;98.40;;;;;;4997939;28;20676;-33
2023/05/26 10:18:18;;;;;;;20.27;5.22;;;16.60;98.40;;;;;;4990694;28;20222;-33
2023/05/26 10:20:52;;;;;;;24.65;6.05;;;16.60;98.40;;;;;;4986607;28;20245;-33
2023/05/26 10:23:25;;;;;;;18.23;5.07;;;16.70;98.50;;;;;;4988520;28;20699;-33
2023/05/26 10:25:53;;;;;;;17.05;5.10;;;16.70;98.00;;;;;;4981537;28;20202;-33
2023/05/26 10:28:53;;;;;;;18.35;4.82;;;16.70;97.90;;;;;;4999327;28;20206;-33
2023/05/26 10:31:34;;;;;;;18.10;5.30;;;16.80;98.50;;;;;;4991058;28;20215;-33
2023/05/26 10:34:34;;;;;;;23.80;5.63;;;16.80;98.20;;;;;;4987322;28;20214;-33
2023/05/26 10:37:14;;;;;;;22.95;5.90;;;16.80;97.80;;;;;;4986478;28;20209;-33
2023/05/26 10:39:46;;;;;;;34.17;8.00;;;16.80;98.10;;;;;;4982314;28;20635;-33
2023/05/26 10:42:20;;;;;;;17.35;5.40;;;16.80;97.80;;;;;;4990167;28;20423;-34
2023/05/26 10:44:54;;;;;;;17.80;5.53;;;16.90;98.20;;;;;;4990439;28;20288;-33
2023/05/26 10:47:28;;;;;;;31.40;9.57;;;17.00;98.10;;;;;;4989535;28;20604;-33
2023/05/26 10:50:17;;;;;;;28.80;7.55;;;17.00;98.10;;;;;;4995290;28;20226;-33
2023/05/26 10:52:50;;;;;;;26.60;6.28;;;17.00;98.20;;;;;;4983442;28;20760;-33
2023/05/26 10:55:31;;;;;;;16.85;5.32;;;17.10;97.70;;;;;;4995578;28;20198;-34
2023/05/26 10:58:36;;;;;;;29.60;6.18;;;17.20;98.10;;;;;;4991458;28;20389;-33
2023/05/26 11:01:09;;;;;;;30.98;7.65;;;17.30;98.30;;;;;;4987124;28;20206;-33
2023/05/26 11:04:04;;;;;;;21.38;5.35;;;17.30;98.00;;;;;;4998061;28;20734;-33
2023/05/26 11:06:58;;;;;;;16.85;4.72;;;17.30;97.20;;;;;;4994971;28;20284;-33
2023/05/26 11:09:31;;;;;;;21.30;6.28;;;17.30;97.50;;;;;;4996055;28;20206;-33
2023/05/26 11:12:00;;;;;;;26.60;6.20;;;17.30;97.70;;;;;;4989004;28;20209;-34
2023/05/26 11:14:35;;;;;;;16.92;5.28;;;17.40;97.80;;;;;;4996504;28;20692;-33
2023/05/26 11:17:07;;;;;;;40.13;8.10;;;17.40;97.10;;;;;;4993824;28;20213;-34
2023/05/26 11:19:36;;;;;;;23.63;5.93;;;17.30;97.30;;;;;;5000734;28;20304;-33
2023/05/26 11:22:15;;;;;;;17.98;4.53;;;17.40;97.60;;;;;;4997324;28;20228;-34
2023/05/26 11:24:44;;;;;;;14.85;5.10;;;17.50;97.60;;;;;;4993083;28;20797;-34
2023/05/26 11:27:12;;;;;;;15.57;5.25;;;17.60;97.90;;;;;;4999986;28;20287;-34
2023/05/26 11:29:43;;;;;;;20.45;5.55;;;17.70;97.90;;;;;;4997461;28;20655;-33
2023/05/26 11:32:14;;;;;;;17.02;5.85;;;17.70;97.50;;;;;;4998632;28;20205;-34
2023/05/26 11:34:41;;;;;;;16.25;4.97;;;17.80;97.40;;;;;;5004953;28;20225;-33
2023/05/26 11:37:08;;;;;;;23.88;6.57;;;17.90;97.70;;;;;;4994354;28;20212;-34
2023/05/26 11:39:38;;;;;;;31.88;7.68;;;18.00;97.30;;;;;;5000802;28;20627;-33
2023/05/26 11:42:10;;;;;;;54.55;11.27;;;18.00;97.50;;;;;;4990353;28;20612;-34
2023/05/26 11:44:43;;;;;;;22.73;5.80;;;18.00;97.20;;;;;;4997302;28;21244;-34
2023/05/26 11:47:14;;;;;;;30.08;8.13;;;18.00;96.60;;;;;;4990485;28;20217;-34
2023/05/26 11:49:48;;;;;;;23.60;6.43;;;18.00;96.70;;;;;;4994927;28;20641;-34
2023/05/26 11:52:17;;;;;;;16.52;5.13;;;18.10;96.90;;;;;;4991620;28;20544;-34
2023/05/26 11:54:47;;;;;;;15.10;4.85;;;18.20;97.20;;;;;;4985592;28;20683;-34
2023/05/26 11:57:25;;;;;;;15.05;4.95;;;18.30;97.60;;;;;;5000736;28;20241;-34
2023/05/26 11:59:56;;;;;;;24.00;6.07;;;18.40;97.80;;;;;;4991518;28;20233;-34
2023/05/26 12:02:24;;;;;;;20.17;5.53;;;18.50;97.80;;;;;;4991751;28;20268;-34
2023/05/26 12:04:54;;;;;;;20.50;5.78;;;18.40;97.00;;;;;;4990518;28;20296;-33
2023/05/26 12:07:27;;;;;;;15.15;4.18;;;18.50;97.60;;;;;;4987046;28;20569;-33
2023/05/26 12:10:07;;;;;;;16.58;4.80;;;18.60;97.20;;;;;;4991285;28;20293;-34
2023/05/26 12:12:52;;;;;;;19.83;5.80;;;18.70;97.40;;;;;;4992440;28;20565;-34
2023/05/26 12:15:25;;;;;;;17.10;4.45;;;18.60;96.70;;;;;;4990177;28;20213;-34
2023/05/26 12:17:54;;;;;;;14.00;4.50;;;18.70;97.10;;;;;;4990626;28;20218;-34
2023/05/26 12:20:23;;;;;;;18.70;5.35;;;18.70;97.00;;;;;;4984578;28;20284;-34
2023/05/26 12:23:02;;;;;;;14.85;4.32;;;18.70;96.50;;;;;;4990271;28;20301;-34
2023/05/26 12:25:30;;;;;;;19.42;5.00;;;18.80;97.10;;;;;;4985796;28;20194;-33
2023/05/26 12:27:58;;;;;;;17.00;4.07;;;18.80;96.00;;;;;;4987694;28;20206;-34
2023/05/26 12:30:28;;;;;;;11.75;4.35;;;18.90;96.80;;;;;;4984286;28;20225;-34
2023/05/26 12:33:16;;;;;;;14.35;4.90;;;18.90;97.30;;;;;;4990080;28;20220;-33
2023/05/26 12:35:44;;;;;;;21.70;4.00;;;19.00;97.10;;;;;;4986328;28;20264;-34
2023/05/26 12:38:14;;;;;;;11.88;4.43;;;18.90;95.00;;;;;;4987052;28;20711;-34
2023/05/26 12:40:44;;;;;;;12.82;4.05;;;18.90;95.50;;;;;;4988227;28;20829;-34
2023/05/26 12:43:16;;;;;;;17.63;4.20;;;18.90;96.50;;;;;;4974111;28;20257;-34
2023/05/26 12:45:48;;;;;;;16.80;4.82;;;18.90;95.50;;;;;;4990963;28;20667;-34
2023/05/26 12:48:15;;;;;;;13.23;4.30;;;19.00;95.90;;;;;;4988480;28;20718;-34
2023/05/26 12:50:47;;;;;;;13.75;4.00;;;19.10;96.40;;;;;;4992072;28;20622;-33
2023/05/26 12:53:17;;;;;;;13.73;3.70;;;19.20;96.10;;;;;;4985860;28;20230;-33
2023/05/26 12:55:44;;;;;;;9.90;3.65;;;19.20;95.50;;;;;;4988100;28;20214;-33